createdAt,value
2017-08-05T00:00:51.399Z,21.80
2017-08-05T00:03:17.880Z,21.80
2017-08-05T00:05:44.377Z,21.80
2017-08-05T00:08:10.853Z,21.80
2017-08-05T00:10:37.376Z,21.80
2017-08-05T00:13:03.846Z,21.80
2017-08-05T00:15:30.343Z,21.80
2017-08-05T00:17:56.800Z,21.80
2017-08-05T00:20:23.290Z,21.70
2017-08-05T00:22:51.529Z,21.30
2017-08-05T00:25:18.044Z,21.30
2017-08-05T00:27:44.499Z,21.30
2017-08-05T00:30:10.995Z,21.20
2017-08-05T00:32:37.469Z,21.20
2017-08-05T00:35:04.968Z,21.30
2017-08-05T00:37:31.464Z,21.40
2017-08-05T00:39:57.968Z,21.40
2017-08-05T00:42:24.448Z,21.40
2017-08-05T00:44:50.941Z,21.50
2017-08-05T00:47:17.409Z,21.50
2017-08-05T00:49:43.904Z,21.60
2017-08-05T00:52:10.376Z,21.70
2017-08-05T00:54:36.877Z,21.70
2017-08-05T00:57:03.364Z,21.60
2017-08-05T00:59:30.922Z,21.70
2017-08-05T01:01:58.133Z,21.70
2017-08-05T01:04:24.599Z,21.60
2017-08-05T01:06:51.811Z,21.70
2017-08-05T01:09:18.409Z,21.70
2017-08-05T01:11:44.821Z,21.70
2017-08-05T01:14:11.973Z,21.70
2017-08-05T01:16:40.149Z,21.70
2017-08-05T01:19:07.301Z,21.60
2017-08-05T01:21:34.464Z,21.50
2017-08-05T01:24:01.917Z,21.50
2017-08-05T01:26:28.333Z,21.40
2017-08-05T01:28:54.809Z,21.40
2017-08-05T01:31:21.228Z,21.40
2017-08-05T01:33:47.663Z,21.40
2017-08-05T01:36:14.068Z,21.40
2017-08-05T01:38:41.230Z,21.40
2017-08-05T01:41:07.717Z,21.40
2017-08-05T01:43:34.137Z,21.40
2017-08-05T01:46:00.575Z,21.40
2017-08-05T01:48:27.016Z,21.40
2017-08-05T01:50:53.457Z,21.30
2017-08-05T01:53:19.914Z,21.30
2017-08-05T01:55:47.102Z,21.20
2017-08-05T01:58:13.516Z,21.20
2017-08-05T02:00:39.991Z,21.10
2017-08-05T02:03:06.437Z,21.10
2017-08-05T02:05:32.888Z,21.00
2017-08-05T02:08:00.118Z,20.70
2017-08-05T02:10:26.584Z,20.60
2017-08-05T02:12:52.993Z,20.70
2017-08-05T02:15:19.436Z,20.60
2017-08-05T02:17:46.585Z,20.60
2017-08-05T02:20:13.765Z,20.60
2017-08-05T02:22:40.288Z,20.50
2017-08-05T02:25:06.758Z,20.60
2017-08-05T02:27:33.183Z,20.50
2017-08-05T02:29:59.628Z,20.40
2017-08-05T02:32:26.043Z,20.30
2017-08-05T02:34:52.486Z,20.20
2017-08-05T02:37:18.883Z,20.20
2017-08-05T02:39:45.345Z,20.00
2017-08-05T02:42:11.781Z,20.00
2017-08-05T02:44:38.212Z,20.00
2017-08-05T02:47:04.613Z,19.80
2017-08-05T02:49:31.004Z,19.50
2017-08-05T02:51:58.490Z,19.40
2017-08-05T02:54:25.671Z,19.50
2017-08-05T02:56:52.089Z,19.50
2017-08-05T02:59:18.515Z,19.60
2017-08-05T03:01:44.933Z,19.60
2017-08-05T03:04:12.077Z,19.60
2017-08-05T03:06:38.470Z,19.60
2017-08-05T03:09:04.877Z,19.70
2017-08-05T03:11:31.281Z,19.70
2017-08-05T03:13:58.422Z,19.60
2017-08-05T03:16:25.574Z,19.50
2017-08-05T03:18:52.716Z,19.50
2017-08-05T03:21:19.885Z,19.50
2017-08-05T03:23:48.066Z,19.50
2017-08-05T03:26:14.468Z,19.50
2017-08-05T03:28:40.872Z,19.50
2017-08-05T03:31:07.278Z,19.50
2017-08-05T03:33:33.686Z,19.40
2017-08-05T03:36:00.833Z,19.40
2017-08-05T03:38:28.989Z,19.40
2017-08-05T03:40:55.411Z,19.30
2017-08-05T03:43:21.833Z,19.40
2017-08-05T03:45:48.246Z,19.40
2017-08-05T03:48:14.653Z,19.40
2017-08-05T03:50:41.078Z,19.40
2017-08-05T03:53:07.499Z,19.40
2017-08-05T03:55:33.893Z,19.40
2017-08-05T03:58:00.312Z,19.40
2017-08-05T04:00:26.785Z,19.30
2017-08-05T04:02:53.936Z,19.10
2017-08-05T04:05:21.130Z,19.10
2017-08-05T04:07:47.563Z,19.10
2017-08-05T04:10:14.004Z,19.10
2017-08-05T04:12:40.455Z,19.00
2017-08-05T04:15:06.890Z,19.00
2017-08-05T04:17:33.296Z,19.00
2017-08-05T04:19:59.715Z,19.00
2017-08-05T04:22:26.146Z,19.00
2017-08-05T04:24:52.560Z,18.80
2017-08-05T04:27:18.968Z,18.80
2017-08-05T04:29:45.367Z,18.70
2017-08-05T04:32:11.795Z,18.60
2017-08-05T04:34:38.408Z,18.50
2017-08-05T04:37:04.972Z,18.50
2017-08-05T04:39:31.599Z,18.50
2017-08-05T04:41:58.025Z,18.60
2017-08-05T04:44:24.437Z,18.60
2017-08-05T04:46:50.845Z,18.60
2017-08-05T04:49:17.253Z,18.70
2017-08-05T04:51:43.651Z,18.80
2017-08-05T04:54:11.166Z,18.90
2017-08-05T04:56:37.591Z,18.80
2017-08-05T04:59:03.992Z,18.90
2017-08-05T05:01:30.472Z,18.90
2017-08-05T05:03:56.898Z,19.00
2017-08-05T05:06:24.094Z,19.10
2017-08-05T05:08:50.492Z,19.10
2017-08-05T05:11:16.942Z,19.30
2017-08-05T05:13:43.356Z,19.30
2017-08-05T05:16:10.510Z,19.50
2017-08-05T05:18:36.966Z,19.50
2017-08-05T05:21:03.391Z,19.60
2017-08-05T05:23:29.933Z,19.60
2017-08-05T05:25:56.340Z,19.70
2017-08-05T05:28:22.758Z,19.80
2017-08-05T05:30:49.244Z,19.90
2017-08-05T05:33:15.650Z,20.10
2017-08-05T05:35:42.068Z,20.20
2017-08-05T05:38:09.227Z,20.20
2017-08-05T05:40:35.641Z,20.20
2017-08-05T05:43:02.851Z,20.30
2017-08-05T05:45:29.275Z,20.30
2017-08-05T05:47:55.690Z,20.50
2017-08-05T05:50:22.096Z,20.60
2017-08-05T05:52:49.278Z,20.70
2017-08-05T05:55:15.737Z,20.60
2017-08-05T05:57:42.136Z,20.90
2017-08-05T06:00:08.575Z,21.00
2017-08-05T06:02:34.998Z,21.10
2017-08-05T06:05:01.401Z,21.20
2017-08-05T06:07:28.589Z,21.40
2017-08-05T06:09:55.010Z,21.40
2017-08-05T06:12:21.431Z,21.60
2017-08-05T06:14:47.833Z,21.80
2017-08-05T06:17:14.254Z,22.10
2017-08-05T06:19:40.719Z,22.30
2017-08-05T06:22:07.865Z,22.50
2017-08-05T06:24:35.019Z,22.70
2017-08-05T06:27:02.181Z,22.80
2017-08-05T06:29:28.610Z,22.80
2017-08-05T06:31:56.094Z,22.90
2017-08-05T06:34:22.510Z,23.10
2017-08-05T06:36:48.930Z,23.20
2017-08-05T06:39:15.354Z,23.40
2017-08-05T06:41:41.762Z,23.50
2017-08-05T06:44:08.200Z,23.70
2017-08-05T06:46:34.601Z,23.80
2017-08-05T06:49:01.026Z,23.90
2017-08-05T06:51:27.457Z,23.90
2017-08-05T06:53:53.861Z,23.90
2017-08-05T06:56:20.309Z,23.80
2017-08-05T06:58:46.708Z,23.90
2017-08-05T07:01:13.114Z,23.90
2017-08-05T07:03:39.526Z,23.90
2017-08-05T07:06:05.933Z,24.20
2017-08-05T07:08:32.377Z,24.30
2017-08-05T07:11:00.626Z,24.60
2017-08-05T07:13:28.104Z,24.60
2017-08-05T07:15:54.501Z,24.40
2017-08-05T07:18:20.919Z,24.50
2017-08-05T07:20:48.117Z,24.50
2017-08-05T07:23:14.521Z,24.40
2017-08-05T07:25:40.940Z,24.40
2017-08-05T07:28:08.107Z,24.80
2017-08-05T07:30:34.527Z,24.70
2017-08-05T07:33:01.741Z,25.00
2017-08-05T07:35:28.151Z,25.00
2017-08-05T07:37:54.565Z,25.20
2017-08-05T07:40:20.991Z,25.30
2017-08-05T07:42:47.400Z,25.30
2017-08-05T07:45:14.603Z,25.90
2017-08-05T07:47:41.027Z,25.80
2017-08-05T07:50:07.452Z,26.00
2017-08-05T07:52:34.888Z,26.10
2017-08-05T07:55:01.304Z,26.20
2017-08-05T07:57:29.537Z,26.10
2017-08-05T07:59:55.950Z,26.10
2017-08-05T08:02:22.358Z,26.20
2017-08-05T08:04:48.764Z,26.40
2017-08-05T08:07:15.168Z,26.60
2017-08-05T08:09:41.626Z,26.90
2017-08-05T08:12:08.046Z,26.80
2017-08-05T08:14:34.457Z,26.90
2017-08-05T08:17:00.870Z,27.00
2017-08-05T08:19:27.292Z,27.20
2017-08-05T08:21:53.750Z,27.00
2017-08-05T08:24:20.169Z,26.80
2017-08-05T08:26:46.586Z,26.60
2017-08-05T08:29:12.988Z,26.40
2017-08-05T08:31:39.421Z,26.50
2017-08-05T08:34:05.932Z,26.70
2017-08-05T08:36:32.341Z,26.70
2017-08-05T08:38:58.760Z,26.90
2017-08-05T08:41:25.160Z,26.90
2017-08-05T08:43:52.317Z,27.30
2017-08-05T08:46:19.518Z,27.50
2017-08-05T08:48:45.924Z,27.40
2017-08-05T08:51:12.321Z,27.70
2017-08-05T08:53:39.469Z,27.70
2017-08-05T08:56:05.872Z,27.70
2017-08-05T08:58:32.359Z,27.60
2017-08-05T09:00:58.785Z,27.50
2017-08-05T09:03:25.210Z,27.50
2017-08-05T09:05:52.356Z,28.00
2017-08-05T09:08:19.531Z,28.20
2017-08-05T09:10:45.936Z,28.10
2017-08-05T09:13:13.085Z,28.10
2017-08-05T09:15:40.264Z,28.30
2017-08-05T09:18:06.676Z,28.30
2017-08-05T09:20:33.834Z,28.40
2017-08-05T09:23:01.286Z,28.40
2017-08-05T09:25:27.689Z,28.50
2017-08-05T09:27:54.096Z,28.30
2017-08-05T09:30:20.501Z,28.30
2017-08-05T09:32:47.964Z,28.20
2017-08-05T09:35:14.379Z,28.30
2017-08-05T09:37:40.784Z,28.40
2017-08-05T09:40:07.958Z,28.30
2017-08-05T09:42:34.371Z,28.30
2017-08-05T09:45:00.776Z,28.30
2017-08-05T09:47:27.241Z,28.70
2017-08-05T09:49:54.408Z,29.10
2017-08-05T09:52:20.863Z,29.00
2017-08-05T09:54:47.290Z,29.10
2017-08-05T09:57:13.728Z,29.30
2017-08-05T09:59:40.157Z,29.30
2017-08-05T10:02:06.625Z,29.30
2017-08-05T10:04:33.029Z,29.10
2017-08-05T10:06:59.450Z,29.10
2017-08-05T10:09:25.882Z,29.10
2017-08-05T10:11:52.299Z,29.30
2017-08-05T10:14:19.729Z,29.30
2017-08-05T10:16:46.879Z,28.90
2017-08-05T10:19:14.028Z,28.70
2017-08-05T10:21:41.180Z,28.60
2017-08-05T10:24:09.364Z,28.70
2017-08-05T10:26:36.557Z,28.60
2017-08-05T10:29:02.965Z,28.60
2017-08-05T10:31:29.364Z,28.50
2017-08-05T10:33:56.509Z,28.40
2017-08-05T10:36:22.941Z,28.40
2017-08-05T10:38:50.146Z,28.70
2017-08-05T10:41:16.561Z,28.70
2017-08-05T10:43:42.960Z,29.00
2017-08-05T10:46:09.360Z,28.80
2017-08-05T10:48:36.780Z,28.60
2017-08-05T10:51:03.221Z,28.80
2017-08-05T10:53:29.624Z,29.00
2017-08-05T10:55:56.786Z,29.40
2017-08-05T10:58:23.189Z,29.40
2017-08-05T11:00:49.600Z,29.60
2017-08-05T11:03:16.036Z,29.70
2017-08-05T11:05:42.440Z,29.90
2017-08-05T11:08:08.861Z,30.20
2017-08-05T11:10:35.286Z,30.10
2017-08-05T11:13:01.686Z,30.20
2017-08-05T11:15:28.085Z,30.20
2017-08-05T11:17:54.527Z,30.20
2017-08-05T11:20:20.948Z,30.40
2017-08-05T11:22:47.410Z,30.50
2017-08-05T11:25:13.826Z,30.30
2017-08-05T11:27:40.405Z,29.90
2017-08-05T11:30:06.811Z,29.60
2017-08-05T11:32:33.953Z,29.50
2017-08-05T11:35:00.401Z,29.40
2017-08-05T11:37:28.584Z,28.90
2017-08-05T11:39:55.753Z,29.20
2017-08-05T11:42:22.162Z,29.20
2017-08-05T11:44:49.334Z,30.00
2017-08-05T11:47:15.741Z,29.90
2017-08-05T11:49:42.137Z,30.20
2017-08-05T11:52:08.545Z,30.50
2017-08-05T11:54:34.966Z,30.50
2017-08-05T11:57:02.395Z,30.30
2017-08-05T11:59:29.564Z,30.10
2017-08-05T12:01:57.856Z,30.10
2017-08-05T12:04:24.265Z,30.00
2017-08-05T12:06:50.699Z,29.90
2017-08-05T12:09:17.100Z,29.80
2017-08-05T12:11:43.508Z,29.80
2017-08-05T12:14:11.039Z,29.70
2017-08-05T12:16:37.943Z,29.80
2017-08-05T12:19:05.106Z,30.10
2017-08-05T12:21:31.515Z,30.00
2017-08-05T12:23:58.674Z,30.00
2017-08-05T12:26:25.820Z,29.70
2017-08-05T12:28:52.970Z,29.30
2017-08-05T12:31:19.376Z,29.20
2017-08-05T12:33:46.843Z,29.20
2017-08-05T12:36:13.252Z,29.00
2017-08-05T12:38:39.705Z,29.30
2017-08-05T12:41:06.126Z,29.70
2017-08-05T12:43:32.676Z,30.20
2017-08-05T12:45:59.082Z,31.40
2017-08-05T12:48:26.555Z,32.40
2017-08-05T12:50:53.021Z,33.50
2017-08-05T12:53:19.522Z,34.30
2017-08-05T12:55:45.932Z,33.50
2017-08-05T12:58:12.347Z,32.40
2017-08-05T13:00:38.798Z,31.50
2017-08-05T13:03:06.235Z,31.20
2017-08-05T13:05:32.669Z,31.50
2017-08-05T13:07:59.076Z,32.10
2017-08-05T13:10:25.464Z,32.30
2017-08-05T13:12:52.907Z,31.70
2017-08-05T13:15:19.353Z,31.10
2017-08-05T13:17:45.765Z,30.60
2017-08-05T13:20:12.224Z,30.20
2017-08-05T13:22:38.644Z,30.30
2017-08-05T13:25:06.076Z,30.90
2017-08-05T13:27:32.496Z,31.90
2017-08-05T13:29:58.932Z,32.90
2017-08-05T13:32:25.333Z,33.80
2017-08-05T13:34:52.527Z,32.50
2017-08-05T13:37:18.930Z,32.50
2017-08-05T13:39:45.364Z,32.10
2017-08-05T13:42:11.782Z,31.80
2017-08-05T13:44:38.954Z,33.00
2017-08-05T13:47:05.370Z,32.90
2017-08-05T13:49:31.819Z,33.60
2017-08-05T13:51:58.224Z,34.90
2017-08-05T13:54:24.656Z,36.40
2017-08-05T13:56:51.066Z,37.20
2017-08-05T13:59:17.509Z,37.30
2017-08-05T14:01:43.920Z,35.90
2017-08-05T14:04:10.364Z,33.90
2017-08-05T14:06:36.785Z,32.70
2017-08-05T14:09:03.225Z,31.70
2017-08-05T14:11:29.632Z,31.30
2017-08-05T14:13:56.054Z,30.90
2017-08-05T14:16:22.503Z,30.40
2017-08-05T14:18:48.930Z,29.80
2017-08-05T14:21:15.350Z,29.30
2017-08-05T14:23:41.770Z,28.90
2017-08-05T14:26:08.182Z,28.70
2017-08-05T14:28:34.649Z,29.00
2017-08-05T14:31:01.061Z,29.10
2017-08-05T14:33:27.481Z,28.80
2017-08-05T14:35:54.646Z,28.70
2017-08-05T14:38:21.060Z,28.70
2017-08-05T14:40:48.256Z,29.60
2017-08-05T14:43:14.656Z,29.50
2017-08-05T14:45:41.073Z,30.00
2017-08-05T14:48:08.221Z,30.20
2017-08-05T14:50:35.368Z,30.30
2017-08-05T14:53:01.817Z,30.30
2017-08-05T14:55:28.963Z,30.30
2017-08-05T14:57:56.119Z,31.60
2017-08-05T15:00:22.543Z,31.50
2017-08-05T15:02:49.688Z,32.20
2017-08-05T15:05:16.875Z,31.00
2017-08-05T15:07:43.292Z,30.90
2017-08-05T15:10:09.737Z,30.30
2017-08-05T15:12:36.136Z,30.40
2017-08-05T15:15:03.316Z,31.30
2017-08-05T15:17:29.730Z,31.30
2017-08-05T15:19:56.179Z,32.00
2017-08-05T15:22:22.592Z,32.50
2017-08-05T15:24:49.046Z,33.00
2017-08-05T15:27:15.471Z,33.00
2017-08-05T15:29:41.905Z,33.90
2017-08-05T15:32:08.308Z,35.30
2017-08-05T15:34:34.752Z,36.40
2017-08-05T15:37:01.918Z,36.70
2017-08-05T15:39:28.378Z,36.70
2017-08-05T15:41:54.790Z,36.30
2017-08-05T15:44:21.235Z,35.90
2017-08-05T15:46:47.654Z,36.30
2017-08-05T15:49:14.066Z,36.00
2017-08-05T15:51:41.222Z,36.50
2017-08-05T15:54:08.389Z,37.20
2017-08-05T15:56:34.815Z,37.10
2017-08-05T15:59:27.228Z,36.70
2017-08-05T16:01:54.434Z,33.60
2017-08-05T16:04:20.857Z,33.60
2017-08-05T16:06:47.256Z,32.50
2017-08-05T16:09:13.660Z,32.00
2017-08-05T16:11:40.143Z,31.50
2017-08-05T16:14:06.546Z,31.00
2017-08-05T16:16:33.701Z,30.60
2017-08-05T16:19:00.105Z,30.60
2017-08-05T16:21:26.533Z,31.30
2017-08-05T16:23:52.989Z,31.50
2017-08-05T16:26:20.155Z,31.10
2017-08-05T16:28:46.552Z,31.10
2017-08-05T16:31:12.969Z,31.10
2017-08-05T16:33:39.392Z,30.90
2017-08-05T16:36:05.832Z,30.60
2017-08-05T16:38:32.253Z,30.80
2017-08-05T16:40:59.718Z,30.70
2017-08-05T16:43:26.130Z,30.40
2017-08-05T16:45:52.535Z,29.80
2017-08-05T16:48:18.976Z,29.60
2017-08-05T16:50:45.386Z,29.80
2017-08-05T16:53:12.529Z,29.80
2017-08-05T16:55:40.685Z,30.00
2017-08-05T16:58:07.121Z,30.00
2017-08-05T17:00:33.581Z,30.40
2017-08-05T17:03:00.749Z,31.20
2017-08-05T17:05:27.169Z,31.10
2017-08-05T17:07:53.571Z,32.40
2017-08-05T17:10:21.039Z,33.60
2017-08-05T17:12:48.201Z,32.50
2017-08-05T17:15:14.652Z,32.50
2017-08-05T17:17:41.048Z,32.00
2017-08-05T17:20:08.244Z,31.10
2017-08-05T17:22:34.650Z,31.00
2017-08-05T17:25:01.784Z,30.10
2017-08-05T17:27:28.933Z,29.70
2017-08-05T17:29:56.081Z,29.30
2017-08-05T17:32:22.489Z,29.30
2017-08-05T17:34:48.898Z,29.00
2017-08-05T17:37:15.322Z,28.70
2017-08-05T17:39:41.725Z,28.40
2017-08-05T17:42:08.905Z,27.80
2017-08-05T17:44:35.318Z,27.80
2017-08-05T17:47:01.745Z,27.70
2017-08-05T17:49:28.161Z,27.60
2017-08-05T17:51:55.313Z,27.10
2017-08-05T17:54:22.498Z,26.90
2017-08-05T17:56:49.915Z,26.80
2017-08-05T17:59:17.068Z,26.70
2017-08-05T18:01:43.472Z,26.60
2017-08-05T18:04:09.873Z,26.70
2017-08-05T18:06:37.326Z,26.60
2017-08-05T18:09:03.814Z,26.60
2017-08-05T18:11:31.009Z,26.50
2017-08-05T18:13:57.426Z,26.50
2017-08-05T18:16:23.837Z,26.40
2017-08-05T18:18:50.989Z,26.40
2017-08-05T18:21:17.399Z,26.30
2017-08-05T18:23:43.849Z,26.30
2017-08-05T18:26:10.318Z,26.10
2017-08-05T18:28:36.731Z,26.00
2017-08-05T18:31:03.154Z,25.80
2017-08-05T18:33:29.567Z,25.80
2017-08-05T18:35:56.033Z,25.60
2017-08-05T18:38:22.436Z,25.40
2017-08-05T18:40:49.597Z,25.20
2017-08-05T18:43:16.832Z,25.20
2017-08-05T18:45:43.238Z,25.10
2017-08-05T18:48:09.697Z,24.90
2017-08-05T18:50:36.111Z,25.00
2017-08-05T18:53:02.520Z,25.10
2017-08-05T18:55:28.922Z,25.00
2017-08-05T18:57:55.331Z,25.00
2017-08-05T19:00:23.525Z,25.10
2017-08-05T19:02:49.935Z,25.10
2017-08-05T19:05:17.098Z,25.10
2017-08-05T19:07:44.243Z,25.10
2017-08-05T19:10:11.400Z,25.10
2017-08-05T19:12:38.544Z,25.10
2017-08-05T19:15:05.709Z,25.10
2017-08-05T19:17:32.108Z,25.10
2017-08-05T19:19:59.545Z,25.10
2017-08-05T19:22:25.955Z,25.10
2017-08-05T19:24:52.364Z,25.10
2017-08-05T19:27:18.836Z,25.10
2017-08-05T19:29:45.250Z,25.10
2017-08-05T19:32:12.741Z,24.90
2017-08-05T19:34:39.152Z,24.80
2017-08-05T19:37:05.602Z,24.60
2017-08-05T19:39:32.044Z,24.30
2017-08-05T19:41:58.489Z,24.00
2017-08-05T19:44:25.632Z,23.80
2017-08-05T19:46:52.045Z,23.70
2017-08-05T19:49:19.483Z,23.60
2017-08-05T19:51:45.902Z,22.90
2017-08-05T19:54:12.308Z,22.30
2017-08-05T19:56:39.731Z,21.90
2017-08-05T19:59:06.702Z,21.80
2017-08-05T20:01:33.853Z,21.60
2017-08-05T20:04:00.999Z,21.50
2017-08-05T20:06:28.166Z,21.40
2017-08-05T20:08:54.604Z,21.40
2017-08-05T20:11:21.006Z,21.50
2017-08-05T20:13:49.196Z,21.40
2017-08-05T20:16:15.608Z,21.40
2017-08-05T20:18:42.774Z,21.50
2017-08-05T20:21:09.226Z,21.40
2017-08-05T20:23:36.674Z,21.40
2017-08-05T20:26:03.080Z,21.40
2017-08-05T20:28:30.241Z,21.40
2017-08-05T20:30:57.396Z,21.40
2017-08-05T20:33:24.587Z,21.40
2017-08-05T20:35:51.008Z,21.30
2017-08-05T20:38:17.418Z,21.30
2017-08-05T20:40:43.830Z,21.40
2017-08-05T20:43:11.338Z,21.40
2017-08-05T20:45:37.806Z,21.30
2017-08-05T20:48:04.230Z,21.50
2017-08-05T20:50:30.629Z,21.50
2017-08-05T20:52:57.036Z,21.50
2017-08-05T20:55:23.450Z,21.40
2017-08-05T20:57:49.903Z,21.40
2017-08-05T21:00:16.319Z,21.30
2017-08-05T21:02:43.468Z,21.00
2017-08-05T21:05:09.877Z,21.00
2017-08-05T21:07:36.279Z,21.00
2017-08-05T21:10:02.700Z,21.00
2017-08-05T21:12:29.114Z,21.00
2017-08-05T21:14:56.541Z,21.00
2017-08-05T21:17:23.698Z,20.80
2017-08-05T21:19:50.108Z,20.80
2017-08-05T21:22:16.508Z,20.80
2017-08-05T21:24:42.924Z,20.60
2017-08-05T21:27:09.348Z,20.50
2017-08-05T21:29:35.802Z,20.60
2017-08-05T21:32:02.230Z,20.40
2017-08-05T21:34:28.663Z,20.50
2017-08-05T21:36:55.081Z,20.50
2017-08-05T21:39:21.502Z,20.60
2017-08-05T21:41:48.932Z,20.50
2017-08-05T21:44:15.342Z,20.60
2017-08-05T21:46:41.774Z,20.60
2017-08-05T21:49:08.192Z,20.50
2017-08-05T21:51:34.642Z,20.40
2017-08-05T21:54:01.059Z,20.30
2017-08-05T21:56:27.497Z,20.30
2017-08-05T21:58:53.914Z,20.00
2017-08-05T22:01:20.370Z,19.80
2017-08-05T22:03:46.787Z,19.60
2017-08-05T22:06:13.281Z,19.40
2017-08-05T22:08:40.520Z,19.60
2017-08-05T22:11:08.702Z,19.50
2017-08-05T22:13:35.874Z,19.50
2017-08-05T22:16:02.280Z,19.50
2017-08-05T22:18:28.724Z,19.40
2017-08-05T22:20:55.159Z,19.50
2017-08-05T22:23:21.607Z,19.40
2017-08-05T22:25:48.033Z,19.40
2017-08-05T22:28:14.486Z,19.50
2017-08-05T22:30:40.932Z,19.40
2017-08-05T22:33:08.366Z,19.40
2017-08-05T22:35:34.773Z,19.30
2017-08-05T22:38:01.206Z,19.30
2017-08-05T22:40:27.609Z,19.20
2017-08-05T22:42:54.082Z,19.30
2017-08-05T22:45:20.493Z,19.20
2017-08-05T22:47:47.640Z,19.20
2017-08-05T22:50:14.816Z,19.20
2017-08-05T22:52:41.232Z,19.10
2017-08-05T22:55:08.416Z,19.00
2017-08-05T22:57:34.849Z,19.00
2017-08-05T23:00:01.273Z,19.00
2017-08-05T23:02:27.708Z,19.00
2017-08-05T23:04:54.128Z,18.90
2017-08-05T23:07:21.596Z,18.80
2017-08-05T23:09:48.010Z,18.80
2017-08-05T23:12:14.425Z,18.80
2017-08-05T23:14:41.639Z,18.60
2017-08-05T23:17:08.082Z,18.60
2017-08-05T23:19:34.540Z,18.50
2017-08-05T23:22:01.714Z,18.60
2017-08-05T23:24:28.174Z,18.60
2017-08-05T23:26:54.590Z,18.60
2017-08-05T23:29:21.021Z,18.60
2017-08-05T23:31:47.480Z,18.60
2017-08-05T23:34:13.908Z,18.50
2017-08-05T23:36:40.356Z,18.50
2017-08-05T23:39:06.781Z,18.50
2017-08-05T23:41:33.200Z,18.50
2017-08-05T23:44:00.684Z,18.40
2017-08-05T23:46:27.094Z,18.40
2017-08-05T23:48:53.518Z,18.60
2017-08-05T23:51:19.955Z,18.50
2017-08-05T23:53:46.379Z,18.40
2017-08-05T23:56:12.866Z,18.40
2017-08-05T23:58:39.284Z,18.40
